Appleton, New York
Current Conditions -  °F | °C
As of 10:29 AM on Friday 24 Oct 2014 (Local Time) from KIAG Reporting Station
Broken Clouds Broken Clouds  
Wind Chill:   Ceiling: 22000
Heat Index:   Visibility: 10mi
Dew Point:   Wind: 6mph
Humidity: 83%   Direction: 290°WNW
Pressure: 30.03"   Gusts: NA
Location:  43.33°N, 78.65°W
Report Text: KIAG 241429Z 29005KT 10SM SCT006 SCT140 BKN220 09/06 A3003 RMK AO2 T00890061
Loading
Personal Weather Stations






























Interactive Weather Map
Tropical Storm Tracking
New forecast layout! Learn more

10-Day Weather Forecast

Advertisements
Track Severe Weather on mobile